FW0562 Weather Reports


time (UTC)temp
C
wind
direction
speed
KPH
gust
KPH
rain 1hr
cm
rain 24hr
cm
rain mn
cm
humidity
%
barometer
mb
20190423041148 11 79 0.0 3.2 0.00 0.00 0.00 62 998.6
20190423034146 12 79 0.0 4.8 0.00 0.00 0.00 58 998.8
20190423031148 12 30 3.2 6.4 0.00 0.00 0.00 55 998.9
20190423024149 13 89 0.0 6.4 0.00 0.00 0.00 54 999.2
20190423021143 13 120 3.2 8.0 0.00 0.00 0.00 53 999.5
20190423014143 13 114 0.0 8.0 0.00 0.00 0.00 55 999.8
20190423011143 14 86 3.2 9.7 0.00 0.00 0.00 52 999.9
20190423004144 15 86 4.8 9.7 0.00 0.00 0.00 52 1000.2
20190423001141 15 82 3.2 8.0 0.00 0.00 0.00 53 1000.4
20190422234128 15 49 1.6 6.4 0.00 0.00 0.00 54 1000.5
20190422231146 15 42 1.6 6.4 0.00 0.00 0.00 53 1000.6
20190422224142 16 111 3.2 8.0 0.00 0.00 0.00 51 1000.9
20190422221144 13 96 0.0 0.0 0.00 0.00 0.00 59 1001.1
20190422214145 14 96 0.0 3.2 0.00 0.00 0.00 57 1001.2
20190422211134 16 96 0.0 3.2 0.00 0.00 0.00 50 1001.4
20190422204140 17 94 3.2 6.4 0.00 0.00 0.00 44 1001.7
20190422201131 19 113 1.6 8.0 0.00 0.00 0.00 40 1001.8
20190422194141 20 97 3.2 11.3 0.00 0.00 0.00 38 1001.9
20190422191132 20 94 3.2 6.4 0.00 0.00 0.00 40 1001.7
20190422184132 20 89 3.2 6.4 0.00 0.00 0.00 39 1001.7
20190422181130 21 75 0.0 9.7 0.00 0.00 0.00 38 1001.8
20190422174129 22 90 3.2 14.5 0.00 0.00 0.00 34 1001.8
20190422171128 23 76 4.8 17.7 0.00 0.00 0.00 33 1002.0
20190422164126 24 104 8.0 22.5 0.00 0.00 0.00 30 1002.1
20190422161130 24 93 8.0 20.9 0.00 0.00 0.00 30 1002.3
20190422154126 25 48 8.0 19.3 0.00 0.00 0.00 29 999.9
20190422151137 25 92 6.4 17.7 0.00 0.00 0.00 31 1002.8
20190422144124 25 69 4.8 17.7 0.00 0.00 0.00 29 1003.2
20190422141131 25 90 3.2 11.3 0.00 0.00 0.00 27 1003.6
20190422134124 25 76 6.4 17.7 0.00 0.00 0.00 26 1004.1
20190422131113 25 103 6.4 17.7 0.00 0.00 0.00 28 1004.4
20190422124118 -17 109 4.8 14.5 0.00 0.00 0.00 1004.9
20190422121120 24 73 8.0 16.1 0.00 0.00 0.00 28 1005.3
20190422114118 24 106 6.4 19.3 0.00 0.00 0.00 25 1005.5
20190422111119 23 54 6.4 16.1 0.00 0.00 0.00 27 1006.0
20190422104120 23 90 1.6 16.1 0.00 0.00 0.00 39 1006.4
20190422101119 22 166 8.0 11.3 0.00 0.00 0.00 38 1006.9
20190422094122 21 164 4.8 11.3 0.00 0.00 0.00 40 1007.3
20190422091114 21 99 3.2 9.7 0.00 0.00 0.00 46 1007.6
20190422084113 20 72 4.8 9.7 0.00 0.00 0.00 42 1007.9
20190422081114 19 113 0.0 1.6 0.00 0.00 0.00 48 1008.2
20190422074116 17 120 0.0 1.6 0.00 0.00 0.00 57 1008.2
20190422071129 15 71 0.0 0.0 0.00 0.00 0.00 60 1008.5
20190422064122 12 71 0.0 0.0 0.00 0.00 0.00 74 1008.7
20190422061119 8 71 0.0 0.0 0.00 0.00 0.00 89 1008.9
20190422054115 6 71 0.0 0.0 0.00 0.00 0.00 92 1009.0
20190422051125 5 71 0.0 0.0 0.00 0.00 0.00 90 1009.1
20190422044112 5 71 0.0 0.0 0.00 0.00 0.00 90 1009.2